Time;durP1;ratioP1;P1;durP2;ratioP2;P2;SDS_P1;SDS_P2;PMS_P1;PMS_P2;Temp;Humidity;BMP_temperature;BMP_pressure;BME280_temperature;BME280_humidity;BME280_pressure;Samples;Min_cycle;Max_cycle;Signal;HPM_P1;HPM_P2
2022/08/04 07:13:56;;;;;;;;;9.00;9.00;;;;;;;;5168358;28;8811;-78
2022/08/04 07:16:27;;;;;;;;;10.75;10.75;;;;;;;;5185916;28;8794;-79
2022/08/04 07:18:59;;;;;;;;;11.25;11.25;;;;;;;;5167286;28;8805;-79
2022/08/04 07:21:30;;;;;;;;;12.00;12.00;;;;;;;;5182798;28;8841;-77
2022/08/04 07:24:02;;;;;;;;;10.00;10.00;;;;;;;;5167469;28;8875;-77
2022/08/04 07:26:33;;;;;;;;;12.75;12.75;;;;;;;;5149542;28;8811;-77
2022/08/04 07:29:05;;;;;;;;;8.75;8.75;;;;;;;;5182127;28;8965;-77
2022/08/04 07:31:37;;;;;;;;;11.75;11.75;;;;;;;;5184376;28;8805;-77
2022/08/04 07:34:08;;;;;;;;;10.75;10.75;;;;;;;;5139832;28;8804;-78
2022/08/04 07:36:40;;;;;;;;;9.50;9.50;;;;;;;;5133079;28;8805;-78
2022/08/04 07:39:12;;;;;;;;;12.00;12.00;;;;;;;;5165075;28;9597;-77
2022/08/04 07:41:43;;;;;;;;;8.00;8.00;;;;;;;;5133267;28;8920;-78
2022/08/04 07:44:15;;;;;;;;;12.00;12.00;;;;;;;;5165478;28;8831;-78
2022/08/04 07:46:46;;;;;;;;;11.00;11.00;;;;;;;;5149042;28;8785;-78
2022/08/04 07:49:19;;;;;;;;;13.75;13.75;;;;;;;;5149361;28;8864;-78
2022/08/04 07:51:50;;;;;;;;;12.25;12.25;;;;;;;;5164913;28;8809;-78
2022/08/04 07:54:40;;;;;;;;;16.00;16.00;;;;;;;;5151423;28;8806;-78
2022/08/04 07:57:11;;;;;;;;;11.75;11.75;;;;;;;;5165088;28;8871;-78
2022/08/04 07:59:42;;;;;;;;;11.00;11.00;;;;;;;;5149142;28;8802;-78
2022/08/04 08:02:14;;;;;;;;;12.25;12.25;;;;;;;;5148800;28;8916;-77
2022/08/04 08:04:45;;;;;;;;;12.00;12.00;;;;;;;;5148720;28;8809;-78
2022/08/04 08:07:35;;;;;;;;;9.75;9.75;;;;;;;;5164791;28;9539;-78
2022/08/04 08:10:11;;;;;;;;;9.67;9.67;;;;;;;;5164805;28;8774;-78
2022/08/04 08:12:42;;;;;;;;;13.25;13.25;;;;;;;;5177121;28;11518;-78
2022/08/04 08:15:32;;;;;;;;;10.75;10.75;;;;;;;;5185613;28;8807;-77
2022/08/04 08:18:22;;;;;;;;;13.00;13.00;;;;;;;;5171735;28;8794;-78
2022/08/04 08:20:54;;;;;;;;;11.00;10.50;;;;;;;;5186010;28;8865;-78
2022/08/04 08:23:25;;;;;;;;;7.75;7.75;;;;;;;;5168430;28;8807;-77
2022/08/04 08:25:56;;;;;;;;;11.75;11.75;;;;;;;;5185800;28;8934;-78
2022/08/04 08:28:46;;;;;;;;;12.00;12.00;;;;;;;;5170724;28;8830;-78
2022/08/04 08:31:35;;;;;;;;;10.00;10.00;;;;;;;;5184768;28;8813;-78
2022/08/04 08:34:07;;;;;;;;;10.00;10.00;;;;;;;;5168309;28;8780;-78
2022/08/04 08:36:56;;;;;;;;;12.25;12.25;;;;;;;;5170815;28;9668;-78
2022/08/04 08:39:30;;;;;;;;;13.00;13.00;;;;;;;;5168440;28;8918;-78
2022/08/04 08:42:04;;;;;;;;;12.25;12.25;;;;;;;;5168252;28;8802;-78
2022/08/04 08:44:54;;;;;;;;;13.00;13.00;;;;;;;;5167115;28;8810;-78
2022/08/04 08:47:43;;;;;;;;;13.25;13.25;;;;;;;;5185435;28;8945;-78
2022/08/04 08:50:17;;;;;;;;;12.00;12.00;;;;;;;;5184407;28;8866;-78
2022/08/04 08:53:21;;;;;;;;;12.25;12.25;;;;;;;;5184280;28;8775;-78
2022/08/04 08:56:11;;;;;;;;;13.25;13.25;;;;;;;;5168308;28;8865;-78
2022/08/04 08:58:42;;;;;;;;;10.75;10.75;;;;;;;;5171267;28;8787;-77
2022/08/04 09:01:46;;;;;;;;;12.75;12.75;;;;;;;;5192953;28;8779;-78
2022/08/04 09:04:17;;;;;;;;;11.00;11.00;;;;;;;;5192115;28;8772;-78
2022/08/04 09:07:07;;;;;;;;;12.00;12.00;;;;;;;;5189157;28;8783;-78
2022/08/04 09:09:41;;;;;;;;;13.00;13.00;;;;;;;;5185497;28;9731;-78
2022/08/04 09:12:29;;;;;;;;;11.75;11.75;;;;;;;;5167310;28;8880;-78
2022/08/04 09:15:23;;;;;;;;;10.00;10.00;;;;;;;;5185940;28;8795;-78
2022/08/04 09:18:03;;;;;;;;;14.25;14.25;;;;;;;;5156713;28;9606;-78
2022/08/04 09:20:46;;;;;;;;;14.75;14.75;;;;;;;;5167579;28;9611;-78
2022/08/04 09:23:23;;;;;;;;;12.50;12.50;;;;;;;;5183735;28;8918;-78
2022/08/04 09:25:54;;;;;;;;;21.75;21.75;;;;;;;;5183386;28;8842;-78
2022/08/04 09:28:26;;;;;;;;;9.50;9.50;;;;;;;;5167053;28;8815;-78
2022/08/04 09:31:02;;;;;;;;;19.00;19.00;;;;;;;;5183289;28;8829;-78
2022/08/04 09:33:42;;;;;;;;;11.75;11.75;;;;;;;;5183615;28;8795;-78
2022/08/04 09:36:35;;;;;;;;;11.25;11.25;;;;;;;;5183392;28;8783;-78
2022/08/04 09:39:14;;;;;;;;;11.50;11.00;;;;;;;;5182995;28;8799;-78
2022/08/04 09:42:04;;;;;;;;;19.25;18.25;;;;;;;;5167052;28;8791;-78
2022/08/04 09:44:59;;;;;;;;;16.00;16.00;;;;;;;;5183266;28;8791;-78
2022/08/04 09:47:37;;;;;;;;;13.00;13.00;;;;;;;;5166874;28;8860;-78
2022/08/04 09:50:37;;;;;;;;;12.00;12.00;;;;;;;;5183253;28;8842;-77
2022/08/04 09:53:26;;;;;;;;;11.50;11.50;;;;;;;;5184534;28;8813;-78
2022/08/04 09:56:03;;;;;;;;;12.00;12.00;;;;;;;;5184293;28;8795;-78
2022/08/04 09:58:37;;;;;;;;;13.25;13.25;;;;;;;;5171208;28;9707;-78
2022/08/04 10:01:29;;;;;;;;;13.50;13.50;;;;;;;;5173472;28;8807;-77
2022/08/04 10:04:01;;;;;;;;;13.25;13.25;;;;;;;;5187241;28;8799;-78
2022/08/04 10:06:33;;;;;;;;;14.00;14.00;;;;;;;;5170833;28;8838;-77
2022/08/04 10:09:31;;;;;;;;;15.00;15.00;;;;;;;;5187110;28;8845;-78
2022/08/04 10:12:08;;;;;;;;;15.75;15.75;;;;;;;;5170651;28;8815;-77
2022/08/04 10:14:44;;;;;;;;;17.00;17.00;;;;;;;;5188252;28;8783;-77
2022/08/04 10:17:19;;;;;;;;;13.00;13.00;;;;;;;;5171170;28;8783;-77
2022/08/04 10:19:55;;;;;;;;;13.00;13.00;;;;;;;;5170552;28;8801;-77
2022/08/04 10:22:29;;;;;;;;;11.25;11.25;;;;;;;;5170685;28;8795;-78
2022/08/04 10:25:32;;;;;;;;;13.25;13.25;;;;;;;;5186781;28;8783;-78
2022/08/04 10:28:06;;;;;;;;;24.00;24.00;;;;;;;;5154473;28;8892;-78
2022/08/04 10:30:39;;;;;;;;;59.80;48.40;;;;;;;;5186629;28;8798;-78
2022/08/04 10:33:13;;;;;;;;;145.50;138.75;;;;;;;;5170326;28;8831;-77
2022/08/04 10:36:05;;;;;;;;;106.60;95.20;;;;;;;;5172995;28;11660;-78
2022/08/04 10:38:41;;;;;;;;;34.50;31.75;;;;;;;;5170232;28;8811;-78
2022/08/04 10:41:17;;;;;;;;;29.75;28.50;;;;;;;;5187766;28;8933;-78
2022/08/04 10:43:57;;;;;;;;;35.25;30.50;;;;;;;;5186445;28;8791;-78
2022/08/04 10:46:30;;;;;;;;;19.75;19.75;;;;;;;;5186790;28;8849;-78
2022/08/04 10:49:07;;;;;;;;;22.00;22.00;;;;;;;;5170011;28;8834;-78
2022/08/04 10:52:08;;;;;;;;;28.50;28.00;;;;;;;;5172498;28;8877;-78
2022/08/04 10:54:56;;;;;;;;;22.25;22.25;;;;;;;;5170312;28;8818;-78
2022/08/04 10:57:43;;;;;;;;;21.25;21.25;;;;;;;;5170187;28;8959;-78
2022/08/04 11:00:18;;;;;;;;;13.75;13.75;;;;;;;;5187460;28;8933;-78
2022/08/04 11:02:52;;;;;;;;;13.00;13.00;;;;;;;;5169829;28;8795;-78
2022/08/04 11:05:23;;;;;;;;;21.75;21.75;;;;;;;;5169940;28;8856;-78
2022/08/04 11:08:04;;;;;;;;;20.75;20.75;;;;;;;;5184935;28;8931;-78
2022/08/04 11:10:53;;;;;;;;;33.00;31.00;;;;;;;;5185773;28;8816;-78
2022/08/04 11:13:28;;;;;;;;;26.25;25.50;;;;;;;;5185427;28;8815;-78
2022/08/04 11:16:03;;;;;;;;;19.25;19.25;;;;;;;;5169509;28;8787;-78
2022/08/04 11:18:53;;;;;;;;;16.00;16.00;;;;;;;;5186901;28;8852;-78
2022/08/04 11:21:46;;;;;;;;;14.50;14.50;;;;;;;;5172224;28;8791;-78
2022/08/04 11:24:21;;;;;;;;;18.50;18.25;;;;;;;;5169588;28;8799;-78
2022/08/04 11:26:57;;;;;;;;;14.25;14.25;;;;;;;;5185694;28;8802;-78
2022/08/04 11:29:47;;;;;;;;;16.50;16.50;;;;;;;;5169264;28;8817;-78
2022/08/04 11:32:20;;;;;;;;;11.25;11.25;;;;;;;;5186002;28;8802;-78
2022/08/04 11:34:54;;;;;;;;;15.00;15.00;;;;;;;;5169494;28;9533;-78
2022/08/04 11:37:27;;;;;;;;;16.00;16.00;;;;;;;;5169371;28;8941;-78
2022/08/04 11:40:19;;;;;;;;;15.25;15.25;;;;;;;;5185427;28;8791;-76
2022/08/04 11:42:59;;;;;;;;;16.25;16.25;;;;;;;;5168607;28;9557;-78
2022/08/04 11:45:33;;;;;;;;;17.75;17.75;;;;;;;;5152966;28;8790;-76
2022/08/04 11:48:15;;;;;;;;;18.00;18.00;;;;;;;;5168887;28;8830;-78
2022/08/04 11:50:49;;;;;;;;;18.50;18.25;;;;;;;;5169379;28;9556;-76
2022/08/04 11:53:22;;;;;;;;;12.25;12.25;;;;;;;;5168794;28;8795;-76
2022/08/04 11:55:57;;;;;;;;;13.75;13.25;;;;;;;;5168964;28;8802;-75
2022/08/04 11:58:28;;;;;;;;;15.75;15.75;;;;;;;;5188504;28;8815;-75
2022/08/04 12:00:59;;;;;;;;;14.75;14.75;;;;;;;;5189719;28;8985;-78
2022/08/04 12:03:49;;;;;;;;;15.00;15.00;;;;;;;;5168904;28;8917;-74
2022/08/04 12:06:56;;;;;;;;;16.00;16.00;;;;;;;;5205783;28;8792;-75
2022/08/04 12:09:45;;;;;;;;;18.25;18.25;;;;;;;;5205401;28;8866;-77
2022/08/04 12:12:46;;;;;;;;;13.75;13.75;;;;;;;;5189223;28;8808;-78
2022/08/04 12:15:39;;;;;;;;;19.25;18.75;;;;;;;;5161167;28;8813;-76
2022/08/04 12:18:33;;;;;;;;;16.75;16.75;;;;;;;;5204367;28;8811;-76
2022/08/04 12:21:06;;;;;;;;;14.50;14.50;;;;;;;;5183089;28;9644;-76
2022/08/04 12:23:39;;;;;;;;;12.50;12.50;;;;;;;;5198028;28;8804;-76
2022/08/04 12:26:22;;;;;;;;;13.25;13.25;;;;;;;;5205540;28;8780;-77
2022/08/04 12:29:14;;;;;;;;;13.50;13.50;;;;;;;;5205274;28;8809;-74
2022/08/04 12:31:47;;;;;;;;;14.75;14.75;;;;;;;;5188600;28;9620;-77
2022/08/04 12:34:24;;;;;;;;;14.75;14.75;;;;;;;;5188543;28;8930;-77
2022/08/04 12:37:05;;;;;;;;;14.25;14.25;;;;;;;;5188743;28;8808;-76
2022/08/04 12:39:59;;;;;;;;;15.25;15.25;;;;;;;;5170547;28;9620;-76
2022/08/04 12:42:57;;;;;;;;;16.00;16.00;;;;;;;;5184277;28;8811;-77
2022/08/04 12:45:29;;;;;;;;;14.00;14.00;;;;;;;;5168294;28;8783;-77
2022/08/04 12:48:01;;;;;;;;;14.25;14.25;;;;;;;;5167829;28;8937;-77
2022/08/04 12:50:32;;;;;;;;;14.50;14.50;;;;;;;;5185564;28;8897;-76
2022/08/04 12:53:10;;;;;;;;;14.50;14.50;;;;;;;;5168378;28;8822;-78
2022/08/04 12:55:46;;;;;;;;;12.25;12.25;;;;;;;;5200266;28;8826;-75
2022/08/04 12:58:19;;;;;;;;;14.25;14.25;;;;;;;;5188216;28;8801;-76
2022/08/04 13:01:11;;;;;;;;;11.50;11.50;;;;;;;;5204457;28;8804;-76
2022/08/04 13:03:43;;;;;;;;;14.00;14.00;;;;;;;;5204171;28;8814;-76
2022/08/04 13:06:15;;;;;;;;;15.25;15.25;;;;;;;;5205563;28;8813;-76
2022/08/04 13:08:46;;;;;;;;;16.00;16.00;;;;;;;;5191864;28;8831;-77
2022/08/04 13:11:18;;;;;;;;;15.00;15.00;;;;;;;;5168192;28;8787;-77
2022/08/04 13:13:54;;;;;;;;;15.50;15.50;;;;;;;;5220495;28;8815;-75
2022/08/04 13:16:29;;;;;;;;;14.50;14.50;;;;;;;;5208148;28;8807;-76
2022/08/04 13:19:00;;;;;;;;;16.00;16.00;;;;;;;;5225841;28;8787;-76
2022/08/04 13:21:31;;;;;;;;;17.00;16.50;;;;;;;;5191775;28;8805;-76
2022/08/04 13:24:05;;;;;;;;;15.50;15.50;;;;;;;;5191468;28;8795;-75
2022/08/04 13:26:37;;;;;;;;;17.50;17.50;;;;;;;;5207334;28;9540;-75
2022/08/04 13:29:12;;;;;;;;;15.75;15.75;;;;;;;;5191479;28;8849;-75
2022/08/04 13:31:44;;;;;;;;;12.75;12.75;;;;;;;;5222855;28;8804;-75
2022/08/04 13:34:20;;;;;;;;;21.75;21.75;;;;;;;;5188289;28;8898;-75
2022/08/04 13:36:53;;;;;;;;;14.00;14.00;;;;;;;;5212574;28;8792;-76
2022/08/04 13:39:25;;;;;;;;;18.25;18.25;;;;;;;;5195640;28;8858;-75
2022/08/04 13:41:59;;;;;;;;;13.75;13.75;;;;;;;;5207859;28;8779;-76
2022/08/04 13:44:35;;;;;;;;;15.75;15.75;;;;;;;;5191746;28;8794;-75
2022/08/04 13:47:14;;;;;;;;;14.50;14.50;;;;;;;;5191556;28;8806;-77
2022/08/04 13:50:04;;;;;;;;;13.00;13.00;;;;;;;;5226348;28;8843;-77
2022/08/04 13:52:35;;;;;;;;;15.75;15.75;;;;;;;;5184095;28;8870;-74
2022/08/04 13:55:22;;;;;;;;;16.25;16.25;;;;;;;;5205027;28;8765;-75
2022/08/04 13:57:56;;;;;;;;;14.00;14.00;;;;;;;;5227124;28;8787;-76
2022/08/04 14:00:40;;;;;;;;;13.25;13.25;;;;;;;;5211836;28;8759;-77
2022/08/04 14:03:24;;;;;;;;;12.50;12.50;;;;;;;;5210660;28;8902;-77
2022/08/04 14:06:38;;;;;;;;;15.50;14.50;;;;;;;;5174400;28;8913;-76
2022/08/04 14:09:13;;;;;;;;;13.75;13.75;;;;;;;;5155038;28;8895;-77
2022/08/04 14:11:46;;;;;;;;;16.25;16.25;;;;;;;;5187251;28;8809;-78
2022/08/04 14:14:20;;;;;;;;;31.75;29.75;;;;;;;;5195138;28;8933;-77
2022/08/04 14:16:56;;;;;;;;;38.20;33.40;;;;;;;;5207839;28;8787;-77
2022/08/04 14:19:28;;;;;;;;;19.75;19.75;;;;;;;;5175014;28;8860;-78
2022/08/04 14:21:59;;;;;;;;;15.00;15.00;;;;;;;;5225181;28;8790;-78
2022/08/04 14:24:30;;;;;;;;;16.00;16.00;;;;;;;;5174134;28;8803;-77
2022/08/04 14:27:01;;;;;;;;;18.50;18.50;;;;;;;;5189799;28;8809;-77
2022/08/04 14:29:40;;;;;;;;;17.33;17.33;;;;;;;;5197343;28;8825;-78
2022/08/04 14:32:11;;;;;;;;;16.00;16.00;;;;;;;;5187262;28;8785;-77
2022/08/04 14:34:43;;;;;;;;;17.00;17.00;;;;;;;;5165956;28;9508;-76
2022/08/04 14:37:15;;;;;;;;;17.50;17.50;;;;;;;;5170474;28;8789;-77
2022/08/04 14:39:48;;;;;;;;;14.50;14.50;;;;;;;;5186989;28;8813;-76
2022/08/04 14:42:38;;;;;;;;;13.75;13.75;;;;;;;;5170175;28;8781;-77
2022/08/04 14:45:09;;;;;;;;;12.50;12.50;;;;;;;;5174055;28;9539;-77
2022/08/04 14:47:41;;;;;;;;;15.25;15.25;;;;;;;;5175159;28;8927;-78
2022/08/04 14:50:13;;;;;;;;;16.50;16.25;;;;;;;;5194595;28;8909;-78
2022/08/04 14:52:44;;;;;;;;;12.25;12.25;;;;;;;;5209129;28;8929;-78
2022/08/04 14:55:16;;;;;;;;;15.25;15.25;;;;;;;;5178245;28;8885;-77
2022/08/04 14:57:47;;;;;;;;;19.00;19.00;;;;;;;;5210672;28;8798;-77
2022/08/04 15:00:37;;;;;;;;;18.75;18.75;;;;;;;;5196880;28;8790;-77
2022/08/04 15:03:09;;;;;;;;;21.00;21.00;;;;;;;;5187273;28;8801;-77
2022/08/04 15:05:51;;;;;;;;;18.75;18.75;;;;;;;;5191912;28;10142;-76
2022/08/04 15:08:40;;;;;;;;;15.75;15.75;;;;;;;;5190775;28;8817;-76
2022/08/04 15:11:12;;;;;;;;;21.00;21.00;;;;;;;;5189996;28;8823;-78
2022/08/04 15:13:47;;;;;;;;;19.25;19.25;;;;;;;;5189976;28;8798;-77
2022/08/04 15:16:38;;;;;;;;;20.75;20.75;;;;;;;;5197021;28;8813;-77
2022/08/04 15:19:09;;;;;;;;;44.00;37.60;;;;;;;;5173561;28;8790;-77
2022/08/04 15:21:59;;;;;;;;;29.50;28.50;;;;;;;;5174860;28;8801;-78
2022/08/04 15:24:30;;;;;;;;;24.75;24.25;;;;;;;;5172287;28;8789;-77
2022/08/04 15:27:02;;;;;;;;;18.00;18.00;;;;;;;;5159714;28;8892;-77
2022/08/04 15:29:43;;;;;;;;;26.50;26.50;;;;;;;;5211976;28;8835;-76
2022/08/04 15:32:15;;;;;;;;;15.00;15.00;;;;;;;;5212783;28;8792;-76
2022/08/04 15:34:59;;;;;;;;;21.00;21.00;;;;;;;;5229020;28;8881;-77
2022/08/04 15:37:38;;;;;;;;;24.25;24.25;;;;;;;;5195794;28;8793;-79
2022/08/04 15:40:13;;;;;;;;;26.75;26.75;;;;;;;;5195951;28;8840;-77
2022/08/04 15:42:58;;;;;;;;;18.50;18.50;;;;;;;;5222004;28;8841;-77
2022/08/04 15:45:31;;;;;;;;;16.75;16.00;;;;;;;;5192464;28;8798;-77
2022/08/04 15:48:02;;;;;;;;;21.25;21.25;;;;;;;;5191999;28;8803;-78
2022/08/04 15:50:35;;;;;;;;;19.00;19.00;;;;;;;;5190094;28;8846;-78
2022/08/04 15:53:06;;;;;;;;;32.25;30.50;;;;;;;;5207911;28;8815;-77
2022/08/04 15:55:38;;;;;;;;;31.00;29.75;;;;;;;;5225571;28;8802;-77
2022/08/04 15:58:11;;;;;;;;;21.00;21.00;;;;;;;;5183343;28;8849;-76
2022/08/04 16:00:45;;;;;;;;;20.50;20.00;;;;;;;;5188114;28;8890;-77
2022/08/04 16:03:45;;;;;;;;;18.25;18.25;;;;;;;;5189027;28;8782;-77
2022/08/04 16:06:16;;;;;;;;;16.25;16.25;;;;;;;;5155952;28;8983;-76
2022/08/04 16:08:51;;;;;;;;;25.75;25.75;;;;;;;;5159286;28;8955;-77
2022/08/04 16:11:22;;;;;;;;;16.25;16.25;;;;;;;;5160477;28;8793;-77
2022/08/04 16:14:02;;;;;;;;;14.50;14.50;;;;;;;;5176178;28;8803;-74
2022/08/04 16:16:46;;;;;;;;;19.00;19.00;;;;;;;;5178024;28;8782;-76
2022/08/04 16:19:52;;;;;;;;;19.00;19.00;;;;;;;;5192608;28;8829;-76
2022/08/04 16:22:32;;;;;;;;;15.67;15.67;;;;;;;;5187527;28;8871;-78
2022/08/04 16:25:03;;;;;;;;;14.00;14.00;;;;;;;;5171291;28;8781;-76
2022/08/04 16:27:43;;;;;;;;;13.75;13.75;;;;;;;;5197336;28;8823;-83
2022/08/04 16:30:14;;;;;;;;;17.50;17.50;;;;;;;;5186995;28;8817;-80
2022/08/04 16:32:47;;;;;;;;;14.50;14.50;;;;;;;;5154619;28;8805;-75
2022/08/04 16:35:37;;;;;;;;;18.00;18.00;;;;;;;;5209590;28;8807;-77
2022/08/04 16:38:13;;;;;;;;;18.00;17.50;;;;;;;;5174110;28;9696;-76
2022/08/04 16:40:52;;;;;;;;;15.75;15.75;;;;;;;;5207168;28;8918;-77
2022/08/04 16:43:31;;;;;;;;;16.75;16.75;;;;;;;;5200154;28;8789;-77
2022/08/04 16:46:42;;;;;;;;;18.00;18.00;;;;;;;;5174254;28;8795;-78
2022/08/04 16:49:14;;;;;;;;;18.00;18.00;;;;;;;;5185763;28;8855;-75
2022/08/04 16:51:45;;;;;;;;;23.75;23.75;;;;;;;;5169743;28;8804;-78
2022/08/04 16:54:35;;;;;;;;;23.75;23.75;;;;;;;;5186040;28;8788;-76
2022/08/04 16:57:07;;;;;;;;;22.25;22.25;;;;;;;;5186455;28;8805;-78
2022/08/04 16:59:49;;;;;;;;;27.00;27.00;;;;;;;;5186735;28;8804;-75
2022/08/04 17:02:24;;;;;;;;;26.50;26.50;;;;;;;;5212178;28;9612;-77
2022/08/04 17:04:55;;;;;;;;;19.75;19.75;;;;;;;;5193852;28;8814;-75
2022/08/04 17:07:26;;;;;;;;;19.75;19.75;;;;;;;;5226600;28;8809;-78
2022/08/04 17:09:57;;;;;;;;;19.25;19.25;;;;;;;;5194155;28;8829;-77
2022/08/04 17:12:28;;;;;;;;;25.00;25.00;;;;;;;;5193505;28;8843;-79
2022/08/04 17:15:21;;;;;;;;;29.00;29.00;;;;;;;;5193072;28;8858;-78
2022/08/04 17:18:15;;;;;;;;;45.60;39.80;;;;;;;;5188476;28;8808;-77
2022/08/04 17:20:47;;;;;;;;;63.00;51.80;;;;;;;;5203740;28;8859;-77
2022/08/04 17:23:21;;;;;;;;;48.80;41.00;;;;;;;;5174573;28;8795;-77
2022/08/04 17:25:53;;;;;;;;;34.80;31.60;;;;;;;;5172386;28;8783;-78
2022/08/04 17:28:25;;;;;;;;;29.20;28.60;;;;;;;;5169829;28;8977;-79
2022/08/04 17:30:58;;;;;;;;;29.50;28.75;;;;;;;;5167451;28;8807;-78
2022/08/04 17:33:29;;;;;;;;;31.25;29.50;;;;;;;;5197696;28;8829;-79
2022/08/04 17:36:01;;;;;;;;;27.25;27.25;;;;;;;;5209970;28;8786;-78
2022/08/04 17:38:34;;;;;;;;;29.25;29.00;;;;;;;;5203419;28;8800;-80
2022/08/04 17:41:07;;;;;;;;;40.00;35.20;;;;;;;;5187974;28;8803;-79
2022/08/04 17:43:44;;;;;;;;;35.20;32.00;;;;;;;;5169739;28;8807;-81
2022/08/04 17:46:19;;;;;;;;;29.00;29.00;;;;;;;;5188152;28;8793;-80
2022/08/04 17:49:08;;;;;;;;;33.40;31.40;;;;;;;;5187231;28;8820;-78
2022/08/04 17:51:43;;;;;;;;;37.00;31.80;;;;;;;;5205022;28;8831;-77
2022/08/04 17:54:15;;;;;;;;;35.00;31.80;;;;;;;;5190390;28;8787;-82
2022/08/04 17:56:50;;;;;;;;;29.75;29.00;;;;;;;;5206768;28;8863;-77
2022/08/04 17:59:44;;;;;;;;;34.60;31.20;;;;;;;;5181938;28;8815;-81
2022/08/04 18:02:21;;;;;;;;;30.60;29.60;;;;;;;;5176217;28;8797;-80
2022/08/04 18:04:52;;;;;;;;;28.50;28.50;;;;;;;;5205232;28;8880;-79
2022/08/04 18:07:33;;;;;;;;;29.50;28.50;;;;;;;;5189405;28;8915;-81
2022/08/04 18:10:04;;;;;;;;;174.00;165.25;;;;;;;;5213161;28;8874;-79
2022/08/04 18:12:36;;;;;;;;;48.80;42.20;;;;;;;;5208408;28;11644;-80
2022/08/04 18:15:28;;;;;;;;;35.40;32.20;;;;;;;;5190668;28;9653;-79
2022/08/04 18:18:13;;;;;;;;;25.00;25.00;;;;;;;;5190588;28;8849;-80
2022/08/04 18:20:44;;;;;;;;;26.25;26.25;;;;;;;;5171743;28;8827;-78
2022/08/04 18:23:15;;;;;;;;;30.60;29.80;;;;;;;;5187124;28;8935;-80
2022/08/04 18:25:46;;;;;;;;;30.75;29.75;;;;;;;;5176123;28;8808;-79
2022/08/04 18:28:17;;;;;;;;;28.75;28.50;;;;;;;;5210531;28;8792;-80
2022/08/04 18:30:48;;;;;;;;;26.25;26.25;;;;;;;;5211349;28;8784;-79
2022/08/04 18:33:19;;;;;;;;;26.50;26.50;;;;;;;;5191841;28;8811;-82
2022/08/04 18:35:50;;;;;;;;;28.80;28.60;;;;;;;;5175982;28;10358;-80
2022/08/04 18:38:21;;;;;;;;;29.00;28.25;;;;;;;;5207126;28;8928;-76
2022/08/04 18:40:52;;;;;;;;;38.80;35.00;;;;;;;;5191068;28;8788;-79
2022/08/04 18:43:23;;;;;;;;;39.75;35.00;;;;;;;;5189661;28;8823;-78
2022/08/04 18:45:54;;;;;;;;;40.00;35.20;;;;;;;;5188687;28;9051;-78
2022/08/04 18:48:37;;;;;;;;;46.20;39.60;;;;;;;;5197737;28;8834;-79
2022/08/04 18:51:08;;;;;;;;;53.40;44.60;;;;;;;;5186803;28;8888;-79
2022/08/04 18:53:39;;;;;;;;;48.75;41.75;;;;;;;;5188209;28;8811;-83
2022/08/04 18:56:11;;;;;;;;;53.80;44.20;;;;;;;;5189651;28;9918;-81
2022/08/04 18:58:43;;;;;;;;;51.20;43.80;;;;;;;;5190152;28;8805;-77
2022/08/04 19:01:23;;;;;;;;;52.60;44.20;;;;;;;;5176156;28;8796;-79
2022/08/04 19:03:54;;;;;;;;;56.40;46.60;;;;;;;;5176314;28;8793;-83
2022/08/04 19:06:25;;;;;;;;;58.60;47.20;;;;;;;;5189283;28;8815;-82
2022/08/04 19:09:14;;;;;;;;;55.60;46.40;;;;;;;;5186125;28;8831;-82
2022/08/04 19:11:45;;;;;;;;;50.80;43.00;;;;;;;;5153661;28;8791;-82
2022/08/04 19:14:16;;;;;;;;;51.40;43.20;;;;;;;;5163996;28;8911;-81
2022/08/04 19:16:47;;;;;;;;;49.60;42.00;;;;;;;;5173604;28;8816;-79
2022/08/04 19:19:18;;;;;;;;;47.40;40.80;;;;;;;;5173847;28;9551;-81
2022/08/04 19:21:49;;;;;;;;;49.80;42.00;;;;;;;;5208612;28;9594;-78
2022/08/04 19:24:20;;;;;;;;;44.80;38.00;;;;;;;;5190603;28;8928;-79
2022/08/04 19:26:51;;;;;;;;;38.40;34.60;;;;;;;;5176671;28;9509;-79
2022/08/04 19:29:22;;;;;;;;;42.20;36.00;;;;;;;;5175022;28;8843;-80
2022/08/04 19:31:56;;;;;;;;;42.80;36.80;;;;;;;;5196748;28;8818;-78
2022/08/04 19:34:27;;;;;;;;;42.00;36.60;;;;;;;;5200252;28;8877;-78
2022/08/04 19:36:58;;;;;;;;;44.00;38.20;;;;;;;;5168833;28;8807;-79
2022/08/04 19:39:30;;;;;;;;;39.40;35.20;;;;;;;;5170883;28;8824;-77
2022/08/04 19:42:01;;;;;;;;;30.00;29.75;;;;;;;;5204729;28;8785;-78
2022/08/04 19:44:32;;;;;;;;;78.20;70.60;;;;;;;;5191436;28;8946;-81
2022/08/04 19:47:03;;;;;;;;;35.00;32.40;;;;;;;;5205825;28;8924;-81
2022/08/04 19:49:53;;;;;;;;;34.60;31.80;;;;;;;;5188117;28;8866;-81
2022/08/04 19:52:24;;;;;;;;;28.00;27.60;;;;;;;;5203418;28;8806;-79
2022/08/04 19:54:54;;;;;;;;;34.40;32.00;;;;;;;;5188789;28;8823;-78
2022/08/04 19:57:25;;;;;;;;;29.33;29.00;;;;;;;;5209035;28;8845;-82
2022/08/04 19:59:56;;;;;;;;;27.00;26.75;;;;;;;;5150957;28;8932;-84
2022/08/04 20:02:27;;;;;;;;;17.67;17.67;;;;;;;;5185548;28;8829;-87
2022/08/04 20:04:58;;;;;;;;;26.25;26.25;;;;;;;;5171295;28;11547;-85
2022/08/04 20:07:29;;;;;;;;;26.75;26.75;;;;;;;;5171397;28;8819;-88
2022/08/04 20:10:01;;;;;;;;;26.75;26.75;;;;;;;;5173934;28;8891;-88
2022/08/04 20:12:33;;;;;;;;;26.25;26.25;;;;;;;;5179248;28;8810;-87
2022/08/04 20:15:04;;;;;;;;;26.00;26.00;;;;;;;;5196091;28;8847;-86
2022/08/04 20:17:35;;;;;;;;;27.50;27.50;;;;;;;;5214858;28;8829;-85
2022/08/04 20:20:07;;;;;;;;;25.00;25.00;;;;;;;;5230567;28;8843;-78
2022/08/04 20:22:38;;;;;;;;;27.75;27.75;;;;;;;;5225499;28;8816;-77
2022/08/04 20:25:09;;;;;;;;;26.75;26.75;;;;;;;;5210880;28;8812;-81
2022/08/04 20:27:41;;;;;;;;;25.75;25.75;;;;;;;;5216724;28;8816;-81
2022/08/04 20:30:12;;;;;;;;;27.75;27.75;;;;;;;;5203419;28;8885;-82
2022/08/04 20:32:45;;;;;;;;;23.50;23.50;;;;;;;;5203689;28;8785;-81
2022/08/04 20:35:16;;;;;;;;;107.60;101.40;;;;;;;;5202192;28;8797;-78
2022/08/04 20:37:47;;;;;;;;;31.20;29.80;;;;;;;;5201260;28;8807;-78
2022/08/04 20:40:18;;;;;;;;;30.40;29.80;;;;;;;;5205215;28;8781;-79
2022/08/04 20:42:49;;;;;;;;;28.20;28.20;;;;;;;;5184430;28;8802;-80
2022/08/04 20:45:38;;;;;;;;;36.60;33.60;;;;;;;;5170374;28;8787;-79
2022/08/04 20:48:28;;;;;;;;;40.40;33.20;;;;;;;;5184919;28;8842;-80
2022/08/04 20:50:59;;;;;;;;;39.40;34.80;;;;;;;;5185603;28;8949;-80
2022/08/04 20:53:30;;;;;;;;;44.20;37.60;;;;;;;;5172058;28;8783;-76
2022/08/04 20:56:01;;;;;;;;;46.80;40.00;;;;;;;;5204566;28;8808;-78
2022/08/04 20:58:32;;;;;;;;;45.00;38.25;;;;;;;;5199188;28;8790;-78
2022/08/04 21:01:03;;;;;;;;;42.75;37.25;;;;;;;;5188023;28;11542;-76
2022/08/04 21:04:29;;;;;;;;;46.60;39.80;;;;;;;;5188081;28;10373;-76
2022/08/04 21:06:26;;;;;;;;;39.00;35.20;;;;;;;;5187500;28;8797;-75
2022/08/04 21:08:57;;;;;;;;;45.00;38.60;;;;;;;;5186538;28;8813;-79
2022/08/04 21:11:29;;;;;;;;;41.80;36.80;;;;;;;;5168727;28;8792;-77
2022/08/04 21:14:00;;;;;;;;;44.00;38.40;;;;;;;;5202077;28;8824;-77
2022/08/04 21:16:50;;;;;;;;;41.40;36.40;;;;;;;;5187609;28;8817;-79
2022/08/04 21:19:21;;;;;;;;;42.80;37.20;;;;;;;;5203618;28;8781;-77
2022/08/04 21:22:13;;;;;;;;;43.40;37.60;;;;;;;;5187858;28;8792;-78
2022/08/04 21:24:44;;;;;;;;;40.80;36.00;;;;;;;;5185993;28;8805;-78
2022/08/04 21:27:34;;;;;;;;;44.40;38.40;;;;;;;;5201080;28;8827;-80
2022/08/04 21:30:06;;;;;;;;;45.40;39.20;;;;;;;;5169628;28;8821;-82
2022/08/04 21:32:37;;;;;;;;;47.20;40.00;;;;;;;;5169628;28;8929;-81
2022/08/04 21:35:09;;;;;;;;;44.80;38.80;;;;;;;;5184010;28;9552;-82
2022/08/04 21:37:58;;;;;;;;;46.60;39.80;;;;;;;;5187734;28;8808;-81
2022/08/04 21:40:31;;;;;;;;;43.40;38.00;;;;;;;;5169922;28;8797;-79
2022/08/04 21:43:02;;;;;;;;;44.80;38.60;;;;;;;;5164456;28;8922;-78
2022/08/04 21:45:52;;;;;;;;;44.40;38.00;;;;;;;;5186850;28;10564;-78
2022/08/04 21:48:42;;;;;;;;;40.60;35.80;;;;;;;;5202362;28;8902;-79
2022/08/04 21:51:20;;;;;;;;;46.80;39.80;;;;;;;;5169368;28;8894;-79
2022/08/04 21:54:14;;;;;;;;;40.40;35.80;;;;;;;;5205533;28;8894;-80
2022/08/04 21:56:45;;;;;;;;;43.80;38.00;;;;;;;;5190713;28;8800;-84
2022/08/04 21:59:35;;;;;;;;;39.00;35.20;;;;;;;;5187110;28;8797;-77
2022/08/04 22:02:07;;;;;;;;;39.20;35.20;;;;;;;;5169585;28;8832;-75
2022/08/04 22:04:38;;;;;;;;;46.00;39.60;;;;;;;;5201960;28;8793;-77
2022/08/04 22:07:09;;;;;;;;;44.40;38.00;;;;;;;;5203499;28;8881;-74
2022/08/04 22:09:40;;;;;;;;;43.40;38.00;;;;;;;;5187228;28;9515;-73
2022/08/04 22:12:13;;;;;;;;;45.40;39.00;;;;;;;;5170820;28;8808;-80
2022/08/04 22:14:44;;;;;;;;;44.40;38.40;;;;;;;;5202879;28;8816;-75
2022/08/04 22:17:15;;;;;;;;;45.20;39.00;;;;;;;;5190820;28;8788;-73
2022/08/04 22:19:47;;;;;;;;;44.20;38.20;;;;;;;;5187038;28;8899;-81
2022/08/04 22:22:18;;;;;;;;;46.60;40.00;;;;;;;;5186919;28;8808;-80
2022/08/04 22:24:50;;;;;;;;;44.00;38.00;;;;;;;;5187147;28;8773;-81
2022/08/04 22:30:11;;;;;;;;;43.00;38.00;;;;;;;;5203457;28;9476;-84
2022/08/04 22:32:43;;;;;;;;;43.80;37.00;;;;;;;;5201391;28;8835;-84
2022/08/04 22:35:14;;;;;;;;;46.20;40.00;;;;;;;;5187343;28;8793;-87
2022/08/04 22:37:46;;;;;;;;;40.20;35.40;;;;;;;;5203532;28;8804;-87
2022/08/04 22:40:17;;;;;;;;;42.40;36.60;;;;;;;;5186976;28;8800;-87
2022/08/04 22:42:48;;;;;;;;;42.00;37.00;;;;;;;;5170790;28;8776;-86
2022/08/04 22:45:19;;;;;;;;;41.00;36.00;;;;;;;;5204920;28;8914;-86